Time;durP1;ratioP1;P1;durP2;ratioP2;P2;SDS_P1;SDS_P2;PMS_P1;PMS_P2;Temp;Humidity;BMP_temperature;BMP_pressure;BME280_temperature;BME280_humidity;BME280_pressure;Samples;Min_cycle;Max_cycle;Signal;HPM_P1;HPM_P2
2021/09/05 00:01:37;;;;;;;24.00;22.20;;;15.30;99.90;;;;;;4878339;29;20460;-70
2021/09/05 00:04:04;;;;;;;23.57;21.87;;;15.30;99.90;;;;;;4878443;29;20516;-70
2021/09/05 00:06:31;;;;;;;24.30;22.20;;;15.30;99.90;;;;;;4877893;29;20504;-69
2021/09/05 00:08:58;;;;;;;23.97;22.07;;;15.30;99.90;;;;;;4877983;29;20456;-69
2021/09/05 00:11:24;;;;;;;22.87;21.37;;;15.20;99.90;;;;;;4877848;29;20828;-69
2021/09/05 00:13:51;;;;;;;23.17;21.67;;;15.30;99.90;;;;;;4878343;29;20538;-69
2021/09/05 00:16:18;;;;;;;23.40;21.90;;;15.20;99.90;;;;;;4878165;29;20467;-69
2021/09/05 00:18:46;;;;;;;23.47;21.87;;;15.20;99.90;;;;;;4877879;29;20460;-69
2021/09/05 00:21:13;;;;;;;23.33;21.70;;;15.20;99.90;;;;;;4878003;29;20901;-69
2021/09/05 00:23:39;;;;;;;23.90;22.20;;;15.10;99.90;;;;;;4877943;29;20460;-69
2021/09/05 00:26:06;;;;;;;24.20;22.70;;;15.10;99.90;;;;;;4877948;29;20468;-69
2021/09/05 00:28:33;;;;;;;24.13;22.70;;;15.10;99.90;;;;;;4877751;29;20471;-70
2021/09/05 00:31:01;;;;;;;23.20;21.60;;;15.10;99.90;;;;;;4877679;29;20504;-70
2021/09/05 00:33:28;;;;;;;23.20;21.80;;;15.10;99.90;;;;;;4877896;29;20483;-70
2021/09/05 00:35:56;;;;;;;25.57;23.63;;;15.10;99.90;;;;;;4877647;29;20479;-69
2021/09/05 00:38:23;;;;;;;23.10;21.60;;;15.10;99.90;;;;;;4877920;29;20452;-69
2021/09/05 00:40:49;;;;;;;24.07;22.47;;;15.00;99.90;;;;;;4877792;29;20540;-69
2021/09/05 00:43:16;;;;;;;23.77;22.00;;;15.00;99.90;;;;;;4877403;29;20483;-69
2021/09/05 00:45:43;;;;;;;22.43;20.77;;;15.00;99.90;;;;;;4877550;29;20491;-69
2021/09/05 00:48:09;;;;;;;23.67;21.97;;;14.90;99.90;;;;;;4877147;29;20498;-69
2021/09/05 00:50:36;;;;;;;26.17;23.67;;;14.90;99.90;;;;;;4877480;29;20460;-69
2021/09/05 00:53:05;;;;;;;24.87;22.97;;;14.90;99.90;;;;;;4877619;29;20464;-69
2021/09/05 00:55:35;;;;;;;24.47;22.67;;;14.90;99.90;;;;;;4877189;29;20464;-69
2021/09/05 00:58:02;;;;;;;25.37;23.47;;;14.80;99.90;;;;;;4876742;29;20456;-69
2021/09/05 01:00:28;;;;;;;26.33;24.10;;;14.70;99.90;;;;;;4876601;29;21010;-69
2021/09/05 01:02:55;;;;;;;24.53;22.73;;;14.60;99.90;;;;;;4877469;29;20530;-70
2021/09/05 01:05:22;;;;;;;25.60;23.70;;;14.60;99.90;;;;;;4877171;29;20922;-69
2021/09/05 01:07:49;;;;;;;24.23;22.50;;;14.60;99.90;;;;;;4877144;29;20496;-69
2021/09/05 01:10:17;;;;;;;24.07;22.13;;;14.50;99.90;;;;;;4876900;29;20464;-70
2021/09/05 01:12:44;;;;;;;26.10;24.40;;;14.50;99.90;;;;;;4877121;29;20452;-71
2021/09/05 01:15:11;;;;;;;23.80;22.10;;;14.50;99.90;;;;;;4876902;29;20468;-71
2021/09/05 01:17:39;;;;;;;23.83;22.10;;;14.50;99.90;;;;;;4876906;29;20452;-70
2021/09/05 01:20:07;;;;;;;24.50;22.60;;;14.40;99.90;;;;;;4876938;29;20551;-70
2021/09/05 01:22:34;;;;;;;25.93;24.13;;;14.40;99.90;;;;;;4876847;29;20475;-70
2021/09/05 01:25:01;;;;;;;24.50;22.90;;;14.40;99.90;;;;;;4876713;29;20460;-70
2021/09/05 01:27:29;;;;;;;25.27;23.50;;;14.40;99.90;;;;;;4876697;29;21085;-70
2021/09/05 01:29:56;;;;;;;24.03;22.43;;;14.40;99.90;;;;;;4876705;29;20511;-70
2021/09/05 01:32:22;;;;;;;23.53;21.87;;;14.40;99.90;;;;;;4876699;29;20463;-70
2021/09/05 01:34:49;;;;;;;24.53;22.73;;;14.40;99.90;;;;;;4876745;29;20452;-69
2021/09/05 01:37:16;;;;;;;23.97;22.17;;;14.40;99.90;;;;;;4876516;29;20473;-70
2021/09/05 01:39:42;;;;;;;24.20;22.10;;;14.40;99.90;;;;;;4876385;29;20583;-69
2021/09/05 01:42:09;;;;;;;23.80;22.10;;;14.30;99.90;;;;;;4876555;29;20452;-69
2021/09/05 01:44:37;;;;;;;23.90;22.10;;;14.30;99.90;;;;;;4876654;29;20492;-69
2021/09/05 01:47:04;;;;;;;26.20;24.17;;;14.30;99.90;;;;;;4876511;29;20519;-70
2021/09/05 01:49:31;;;;;;;24.37;22.57;;;14.30;99.90;;;;;;4876523;29;20856;-70
2021/09/05 01:51:58;;;;;;;24.33;22.40;;;14.30;99.90;;;;;;4876500;29;20977;-69
2021/09/05 01:54:24;;;;;;;24.20;22.50;;;14.30;99.90;;;;;;4876396;29;20491;-69
2021/09/05 01:56:51;;;;;;;24.23;22.50;;;14.20;99.90;;;;;;4876377;29;20478;-69
2021/09/05 01:59:18;;;;;;;24.33;22.53;;;14.20;99.90;;;;;;4876473;29;20456;-69
2021/09/05 02:01:46;;;;;;;24.50;22.43;;;14.20;99.90;;;;;;4876360;29;20456;-69
2021/09/05 02:04:12;;;;;;;24.00;22.00;;;14.20;99.90;;;;;;4876224;29;20477;-69
2021/09/05 02:06:39;;;;;;;24.10;22.40;;;14.20;99.90;;;;;;4876457;29;20456;-69
2021/09/05 02:09:06;;;;;;;24.00;22.20;;;14.30;99.90;;;;;;4876509;29;20479;-69
2021/09/05 02:11:33;;;;;;;22.90;21.40;;;14.30;99.90;;;;;;4878733;29;20504;-69
2021/09/05 02:14:00;;;;;;;23.60;21.80;;;14.30;99.90;;;;;;4879841;29;20459;-69
2021/09/05 02:16:26;;;;;;;22.53;21.03;;;14.30;99.90;;;;;;4879672;29;20464;-69
2021/09/05 02:18:54;;;;;;;25.20;23.40;;;14.30;99.90;;;;;;4879742;29;20459;-69
2021/09/05 02:21:21;;;;;;;23.97;22.43;;;14.20;99.90;;;;;;4879973;29;20467;-70
2021/09/05 02:23:48;;;;;;;26.07;23.73;;;14.20;99.90;;;;;;4879705;29;21006;-70
2021/09/05 02:26:14;;;;;;;23.20;21.50;;;14.20;99.90;;;;;;4879460;29;20463;-70
2021/09/05 02:28:41;;;;;;;23.27;21.67;;;14.20;99.90;;;;;;4879529;29;20495;-69
2021/09/05 02:31:08;;;;;;;23.23;21.63;;;14.20;99.90;;;;;;4879538;29;20798;-70
2021/09/05 02:33:34;;;;;;;24.97;23.23;;;14.10;99.90;;;;;;4879596;29;20803;-70
2021/09/05 02:36:03;;;;;;;23.67;22.00;;;14.10;99.90;;;;;;4879427;29;20948;-70
2021/09/05 02:38:29;;;;;;;24.33;22.53;;;14.10;99.90;;;;;;4879414;29;20819;-70
2021/09/05 02:40:56;;;;;;;24.70;22.50;;;14.10;99.90;;;;;;4879273;29;20455;-70
2021/09/05 02:43:23;;;;;;;24.07;22.30;;;14.10;99.90;;;;;;4879283;29;20896;-70
2021/09/05 02:45:49;;;;;;;23.13;21.53;;;14.10;99.90;;;;;;4879437;29;20478;-70
2021/09/05 02:48:17;;;;;;;22.13;20.67;;;14.10;99.90;;;;;;4879017;29;20492;-70
2021/09/05 02:50:43;;;;;;;24.37;22.27;;;14.10;99.90;;;;;;4879051;29;21195;-70
2021/09/05 02:53:11;;;;;;;21.97;20.47;;;14.00;99.90;;;;;;4878941;29;20833;-71
2021/09/05 02:55:38;;;;;;;23.80;22.00;;;14.00;99.90;;;;;;4879032;29;20456;-71
2021/09/05 02:58:05;;;;;;;23.23;21.63;;;14.00;99.90;;;;;;4879167;29;20834;-71
2021/09/05 03:00:31;;;;;;;23.27;21.67;;;14.00;99.90;;;;;;4878925;29;20456;-71
2021/09/05 03:02:58;;;;;;;26.00;24.23;;;14.00;99.90;;;;;;4878779;29;20467;-71
2021/09/05 03:05:25;;;;;;;23.07;21.47;;;14.00;99.90;;;;;;4878764;29;20488;-70
2021/09/05 03:07:51;;;;;;;23.03;21.47;;;13.90;99.90;;;;;;4879144;29;20546;-70
2021/09/05 03:10:19;;;;;;;26.50;24.50;;;13.90;99.90;;;;;;4880780;29;20460;-70
2021/09/05 03:15:54;;;;;;;24.20;22.50;;;13.90;99.90;;;;;;5914608;23;20401;-72
2021/09/05 03:18:21;;;;;;;23.33;21.67;;;13.80;99.90;;;;;;4921785;29;20460;-70
2021/09/05 03:20:48;;;;;;;23.40;21.80;;;13.80;99.90;;;;;;4935012;29;20453;-70
2021/09/05 03:23:14;;;;;;;24.57;22.77;;;13.80;99.90;;;;;;4933698;29;20465;-70
2021/09/05 03:25:43;;;;;;;23.97;22.27;;;13.80;99.90;;;;;;4935165;29;20454;-73
2021/09/05 03:28:10;;;;;;;23.73;22.03;;;13.80;99.90;;;;;;4935133;29;21017;-71
2021/09/05 03:30:37;;;;;;;23.97;22.23;;;13.80;99.90;;;;;;4935251;29;20479;-71
2021/09/05 03:33:03;;;;;;;24.30;22.73;;;13.80;99.90;;;;;;4935069;29;20999;-71
2021/09/05 03:35:30;;;;;;;25.23;23.50;;;13.70;99.90;;;;;;4938009;29;20465;-71
2021/09/05 03:37:57;;;;;;;25.47;23.57;;;13.70;99.90;;;;;;4942918;28;20445;-71
2021/09/05 03:40:23;;;;;;;24.70;23.07;;;13.70;99.90;;;;;;4944070;28;20454;-71
2021/09/05 03:42:51;;;;;;;26.60;24.47;;;13.70;99.90;;;;;;4939572;29;20500;-72
2021/09/05 03:45:18;;;;;;;26.07;24.10;;;13.70;99.90;;;;;;4942550;28;20511;-72
2021/09/05 03:47:45;;;;;;;24.40;22.70;;;13.60;99.90;;;;;;4943404;29;20488;-71
2021/09/05 03:50:12;;;;;;;24.40;22.60;;;13.60;99.90;;;;;;4942169;29;20454;-71
2021/09/05 03:52:38;;;;;;;23.63;22.03;;;13.60;99.90;;;;;;4942784;28;20445;-71
2021/09/05 03:55:06;;;;;;;24.03;22.33;;;13.50;99.90;;;;;;4943607;29;21018;-71
2021/09/05 03:57:33;;;;;;;25.60;23.90;;;13.60;99.90;;;;;;4942070;29;20501;-71
2021/09/05 04:00:01;;;;;;;25.63;23.93;;;13.50;99.90;;;;;;4942317;28;20445;-71
2021/09/05 04:02:27;;;;;;;24.43;22.60;;;13.50;99.90;;;;;;4943451;29;20444;-71
2021/09/05 04:04:54;;;;;;;25.47;23.30;;;13.40;99.90;;;;;;4942292;28;20822;-71
2021/09/05 04:07:21;;;;;;;25.00;23.10;;;13.40;99.90;;;;;;4942134;28;20937;-70
2021/09/05 04:12:32;;;;;;;24.67;22.77;;;13.40;99.90;;;;;;4938452;28;20438;-71
2021/09/05 04:14:59;;;;;;;24.77;23.10;;;13.40;99.90;;;;;;4934115;28;20480;-71
2021/09/05 04:17:27;;;;;;;24.97;23.17;;;13.30;99.90;;;;;;4935205;29;20504;-72
2021/09/05 04:19:53;;;;;;;25.97;24.03;;;13.30;99.90;;;;;;4939939;28;20543;-72
2021/09/05 04:22:20;;;;;;;25.87;24.07;;;13.20;99.90;;;;;;4942010;29;20452;-72
2021/09/05 04:24:47;;;;;;;24.37;22.57;;;13.20;99.90;;;;;;4943189;28;20448;-72
2021/09/05 04:27:14;;;;;;;24.57;22.67;;;13.10;99.90;;;;;;4941793;28;20457;-71
2021/09/05 04:29:40;;;;;;;24.63;23.03;;;13.20;99.90;;;;;;4941960;28;20517;-72
2021/09/05 04:32:07;;;;;;;25.73;23.77;;;13.10;99.90;;;;;;4942890;29;20445;-72
2021/09/05 04:34:35;;;;;;;24.13;22.43;;;13.10;99.90;;;;;;4941836;28;20442;-71
2021/09/05 04:37:03;;;;;;;25.17;23.47;;;13.10;99.90;;;;;;4941430;29;20527;-72
2021/09/05 04:39:29;;;;;;;26.07;24.10;;;13.10;99.90;;;;;;4942924;28;20444;-71
2021/09/05 04:41:56;;;;;;;25.83;24.13;;;13.10;99.90;;;;;;4942011;29;20452;-72
2021/09/05 04:44:23;;;;;;;25.10;23.20;;;13.10;99.90;;;;;;4941069;28;20508;-70
2021/09/05 04:46:49;;;;;;;24.33;22.70;;;13.20;99.90;;;;;;4942641;28;20453;-69
2021/09/05 04:49:16;;;;;;;23.37;21.73;;;13.20;99.90;;;;;;4941570;28;20829;-69
2021/09/05 04:51:44;;;;;;;26.03;24.10;;;13.20;99.90;;;;;;4941084;28;20448;-68
2021/09/05 04:54:11;;;;;;;25.90;24.17;;;13.30;99.90;;;;;;4942689;28;20457;-69
2021/09/05 04:56:37;;;;;;;26.90;24.90;;;13.30;99.90;;;;;;4941711;29;20441;-68
2021/09/05 04:59:04;;;;;;;25.17;23.33;;;13.30;99.90;;;;;;4940645;29;20807;-69
2021/09/05 05:01:31;;;;;;;24.77;22.97;;;13.30;99.90;;;;;;4938253;28;20946;-68
2021/09/05 05:03:57;;;;;;;25.13;23.23;;;13.40;99.90;;;;;;4941631;29;20862;-69
2021/09/05 05:06:24;;;;;;;24.40;22.70;;;13.40;99.90;;;;;;4942341;29;20986;-69
2021/09/05 05:08:52;;;;;;;25.70;23.90;;;13.40;99.90;;;;;;4938053;28;21011;-69
2021/09/05 05:11:19;;;;;;;25.03;23.33;;;13.40;99.90;;;;;;4941398;29;20516;-70
2021/09/05 05:13:46;;;;;;;25.70;23.70;;;13.50;99.90;;;;;;4942475;29;20819;-70
2021/09/05 05:16:13;;;;;;;24.20;22.43;;;13.50;99.90;;;;;;4946088;28;20527;-71
2021/09/05 05:18:41;;;;;;;23.53;21.83;;;13.50;99.90;;;;;;4952317;28;20444;-71
2021/09/05 05:21:08;;;;;;;23.90;22.20;;;13.60;99.90;;;;;;4952239;28;21022;-71
2021/09/05 05:23:35;;;;;;;24.17;22.40;;;13.60;99.90;;;;;;4951944;28;20444;-71
2021/09/05 05:26:03;;;;;;;22.60;21.00;;;13.50;99.90;;;;;;4952025;28;20456;-71
2021/09/05 05:28:30;;;;;;;22.77;20.97;;;13.60;99.90;;;;;;4951836;28;20539;-71
2021/09/05 05:30:56;;;;;;;23.93;22.23;;;13.60;99.90;;;;;;4951963;29;20460;-71
2021/09/05 05:33:23;;;;;;;23.40;21.87;;;13.60;99.90;;;;;;4951920;28;20468;-71
2021/09/05 05:35:50;;;;;;;25.10;23.00;;;13.70;99.90;;;;;;4951760;28;20456;-71
2021/09/05 05:38:16;;;;;;;23.27;21.73;;;13.80;99.90;;;;;;4951772;28;20840;-71
2021/09/05 05:40:43;;;;;;;23.27;21.47;;;13.80;99.90;;;;;;4951891;28;20460;-72
2021/09/05 05:43:11;;;;;;;24.27;22.30;;;14.00;99.90;;;;;;4951988;28;20464;-72
2021/09/05 05:45:38;;;;;;;23.37;21.77;;;14.40;99.90;;;;;;4953091;28;20788;-71
2021/09/05 05:48:05;;;;;;;22.57;21.00;;;14.70;99.90;;;;;;4955492;28;20488;-71
2021/09/05 05:50:32;;;;;;;21.27;19.57;;;15.00;99.90;;;;;;4955459;28;20463;-71
2021/09/05 05:52:58;;;;;;;21.50;19.93;;;15.30;99.90;;;;;;4955771;28;20939;-71
2021/09/05 05:55:25;;;;;;;21.80;20.30;;;15.60;99.90;;;;;;4955693;28;20942;-71
2021/09/05 05:57:52;;;;;;;20.93;19.53;;;15.80;99.90;;;;;;4955612;28;20460;-71
2021/09/05 06:00:24;;;;;;;21.60;20.20;;;15.90;99.90;;;;;;4955325;28;20460;-72
2021/09/05 06:02:51;;;;;;;20.90;19.57;;;15.90;99.90;;;;;;4955560;28;20491;-71
2021/09/05 06:05:18;;;;;;;19.90;18.50;;;15.90;99.90;;;;;;4955340;28;20468;-71
2021/09/05 06:07:45;;;;;;;21.03;19.63;;;16.10;99.90;;;;;;4955219;28;20464;-71
2021/09/05 06:10:12;;;;;;;21.23;19.83;;;16.20;99.90;;;;;;4955256;28;20515;-71
2021/09/05 06:12:38;;;;;;;20.63;19.33;;;16.30;99.90;;;;;;4952220;28;20460;-70
2021/09/05 06:15:06;;;;;;;20.70;19.20;;;16.50;99.90;;;;;;4943896;28;20469;-70
2021/09/05 06:17:34;;;;;;;21.63;19.93;;;16.70;99.90;;;;;;4941268;29;20472;-70
2021/09/05 06:20:01;;;;;;;19.83;18.43;;;16.80;99.90;;;;;;4943979;29;20444;-69
2021/09/05 06:22:28;;;;;;;20.93;19.13;;;16.90;99.90;;;;;;4941503;28;20465;-69
2021/09/05 06:24:54;;;;;;;21.23;19.50;;;17.20;99.90;;;;;;4945732;28;20457;-71
2021/09/05 06:27:21;;;;;;;20.63;19.17;;;17.20;99.90;;;;;;4944083;29;20452;-71
2021/09/05 06:29:48;;;;;;;21.30;19.70;;;17.30;99.90;;;;;;4945408;29;20538;-71
2021/09/05 06:32:14;;;;;;;20.47;19.03;;;17.30;99.90;;;;;;4942632;29;20523;-69
2021/09/05 06:34:42;;;;;;;20.00;18.70;;;17.50;99.90;;;;;;4944798;28;20473;-71
2021/09/05 06:37:09;;;;;;;19.63;18.23;;;17.60;99.90;;;;;;4943101;28;20442;-70
2021/09/05 06:39:36;;;;;;;20.57;19.17;;;18.00;99.90;;;;;;4944449;29;20444;-70
2021/09/05 06:42:02;;;;;;;19.83;18.63;;;18.10;99.90;;;;;;4944638;29;20582;-69
2021/09/05 06:44:29;;;;;;;20.47;19.07;;;18.20;99.90;;;;;;4942868;29;20726;-70
2021/09/05 06:46:56;;;;;;;20.80;19.50;;;18.40;99.90;;;;;;4944064;28;20445;-70
2021/09/05 06:49:22;;;;;;;20.67;19.27;;;18.60;99.90;;;;;;4944492;29;20477;-70
2021/09/05 06:51:50;;;;;;;20.23;18.83;;;18.80;99.90;;;;;;4943023;29;20449;-71
2021/09/05 06:54:17;;;;;;;20.80;19.30;;;18.90;99.90;;;;;;4943855;28;20515;-71
2021/09/05 06:56:44;;;;;;;19.27;18.07;;;19.30;99.90;;;;;;4944205;29;20457;-71
2021/09/05 06:59:10;;;;;;;19.50;18.30;;;19.50;99.90;;;;;;4942864;29;20446;-71
2021/09/05 07:01:37;;;;;;;19.47;18.07;;;19.60;99.90;;;;;;4943816;28;20476;-71
2021/09/05 07:04:04;;;;;;;18.73;17.53;;;20.00;99.90;;;;;;4946540;28;20450;-71
2021/09/05 07:06:30;;;;;;;19.20;17.90;;;20.10;99.90;;;;;;4945289;29;20453;-70
2021/09/05 07:08:58;;;;;;;19.20;17.90;;;20.10;99.90;;;;;;4944323;29;20530;-71
2021/09/05 07:11:25;;;;;;;18.87;17.77;;;20.40;99.90;;;;;;4944705;28;20500;-71
2021/09/05 07:13:52;;;;;;;19.67;18.30;;;20.40;99.90;;;;;;4939659;28;20457;-72
2021/09/05 07:16:19;;;;;;;19.90;18.67;;;20.70;99.90;;;;;;4938449;29;20499;-71
2021/09/05 07:18:45;;;;;;;19.43;18.23;;;20.70;99.90;;;;;;4935002;29;20829;-72
2021/09/05 07:21:12;;;;;;;21.30;19.87;;;20.80;99.90;;;;;;4934635;29;20458;-72
2021/09/05 07:23:39;;;;;;;20.83;19.53;;;20.90;99.90;;;;;;4934798;29;20512;-71
2021/09/05 07:26:07;;;;;;;19.27;18.07;;;21.10;99.90;;;;;;4934482;29;20488;-71
2021/09/05 07:28:35;;;;;;;19.20;18.00;;;21.50;99.90;;;;;;4932243;29;20477;-72
2021/09/05 07:31:02;;;;;;;19.77;18.43;;;21.50;99.90;;;;;;4934337;29;20549;-72
2021/09/05 07:33:29;;;;;;;18.63;17.53;;;21.80;99.90;;;;;;4933375;29;20481;-72
2021/09/05 07:35:56;;;;;;;19.60;18.40;;;22.20;99.90;;;;;;4934118;29;20438;-71
2021/09/05 07:38:22;;;;;;;19.23;18.03;;;22.30;99.90;;;;;;4934202;29;20445;-72
2021/09/05 07:40:49;;;;;;;20.03;18.63;;;22.80;99.90;;;;;;4934476;29;20944;-71
2021/09/05 07:43:17;;;;;;;19.03;17.83;;;22.70;99.90;;;;;;4934175;29;20445;-72
2021/09/05 07:45:44;;;;;;;19.33;18.23;;;22.50;99.90;;;;;;4934109;29;20850;-71
2021/09/05 07:48:11;;;;;;;19.10;17.90;;;22.40;99.90;;;;;;4934076;29;20449;-71
2021/09/05 07:50:37;;;;;;;19.33;18.13;;;22.30;99.90;;;;;;4934564;29;20489;-72
2021/09/05 07:53:04;;;;;;;19.90;18.70;;;22.20;99.90;;;;;;4934064;29;20454;-71
2021/09/05 07:55:30;;;;;;;19.70;18.40;;;22.30;99.90;;;;;;4933976;29;20489;-71
2021/09/05 07:57:57;;;;;;;20.17;18.60;;;22.60;99.90;;;;;;4934226;29;20465;-72
2021/09/05 08:00:26;;;;;;;19.10;18.00;;;22.90;99.90;;;;;;4934330;29;20473;-72
2021/09/05 08:02:52;;;;;;;18.13;17.00;;;23.10;99.90;;;;;;4934291;29;20956;-71
2021/09/05 08:05:19;;;;;;;18.73;17.40;;;23.10;99.90;;;;;;4933017;29;20963;-71
2021/09/05 08:07:46;;;;;;;20.70;19.40;;;23.10;99.90;;;;;;4932157;29;20457;-73
2021/09/05 08:10:12;;;;;;;18.57;17.40;;;23.10;99.90;;;;;;4934386;29;20497;-74
2021/09/05 08:12:39;;;;;;;18.13;16.97;;;23.20;99.90;;;;;;4934671;29;20453;-73
2021/09/05 08:15:07;;;;;;;19.17;18.07;;;23.30;99.90;;;;;;4934115;29;20486;-74
2021/09/05 08:17:35;;;;;;;18.57;17.53;;;23.80;99.80;;;;;;4934396;29;20544;-73
2021/09/05 08:20:02;;;;;;;18.77;17.40;;;23.90;99.40;;;;;;4934297;29;20454;-74
2021/09/05 08:22:29;;;;;;;17.23;16.13;;;24.10;98.60;;;;;;4934265;29;20520;-75
2021/09/05 08:24:56;;;;;;;19.10;17.83;;;24.10;98.80;;;;;;4932508;29;20453;-73
2021/09/05 08:27:22;;;;;;;18.33;17.13;;;24.70;98.00;;;;;;4933286;29;20528;-74
2021/09/05 08:29:49;;;;;;;19.20;18.07;;;24.80;97.50;;;;;;4932444;29;21003;-73
2021/09/05 08:32:16;;;;;;;17.60;16.60;;;25.10;96.40;;;;;;4930976;29;20470;-73
2021/09/05 08:34:44;;;;;;;18.60;17.60;;;25.50;95.90;;;;;;4934245;29;20458;-73
2021/09/05 08:37:10;;;;;;;17.97;16.97;;;25.80;95.40;;;;;;4934334;29;20454;-73
2021/09/05 08:39:37;;;;;;;19.20;18.00;;;26.10;94.90;;;;;;4934300;29;20454;-73
2021/09/05 08:42:04;;;;;;;18.93;17.83;;;27.00;93.20;;;;;;4934053;29;20513;-73
2021/09/05 08:44:31;;;;;;;18.07;17.17;;;27.40;92.30;;;;;;4934128;29;20517;-73
2021/09/05 08:46:59;;;;;;;17.90;17.00;;;27.90;90.90;;;;;;4933991;29;20457;-74
2021/09/05 08:49:27;;;;;;;18.07;17.07;;;28.20;90.80;;;;;;4933809;29;20489;-73
2021/09/05 08:51:56;;;;;;;18.63;17.63;;;28.50;90.30;;;;;;4933899;29;20825;-73
2021/09/05 08:54:23;;;;;;;19.20;18.20;;;29.40;88.50;;;;;;4933983;29;20485;-74
2021/09/05 08:56:50;;;;;;;19.47;18.37;;;30.00;84.80;;;;;;4933700;29;20461;-73
2021/09/05 08:59:17;;;;;;;19.07;18.07;;;30.50;82.90;;;;;;4933786;29;20557;-74
2021/09/05 09:01:52;;;;;;;20.60;19.20;;;31.00;81.90;;;;;;4933543;29;20457;-74
2021/09/05 09:04:19;;;;;;;19.33;18.33;;;31.70;78.80;;;;;;4933816;29;20456;-74
2021/09/05 09:06:46;;;;;;;19.73;18.53;;;32.40;74.70;;;;;;4933635;29;20465;-74
2021/09/05 09:09:14;;;;;;;21.90;20.50;;;32.50;74.10;;;;;;4933449;29;20998;-74
2021/09/05 09:11:48;;;;;;;18.70;17.70;;;33.20;71.60;;;;;;4933967;29;20867;-75
2021/09/05 09:14:15;;;;;;;20.03;19.10;;;33.30;70.10;;;;;;4933613;29;20481;-74
2021/09/05 09:16:42;;;;;;;20.40;19.20;;;33.10;69.20;;;;;;4933592;29;20877;-74
2021/09/05 09:19:21;;;;;;;19.73;18.60;;;33.30;68.30;;;;;;4933422;29;20519;-74
2021/09/05 09:21:47;;;;;;;18.00;17.20;;;33.60;66.10;;;;;;4933197;29;20457;-75
2021/09/05 09:24:18;;;;;;;18.37;17.37;;;33.30;67.30;;;;;;4933463;29;20457;-74
2021/09/05 09:26:56;;;;;;;18.77;17.67;;;33.30;67.00;;;;;;4933528;29;20505;-75
2021/09/05 09:29:23;;;;;;;18.50;17.40;;;33.60;65.70;;;;;;4933877;29;20867;-75
2021/09/05 09:31:58;;;;;;;19.13;17.77;;;33.80;65.60;;;;;;4933509;29;20458;-75
2021/09/05 09:34:25;;;;;;;19.50;18.33;;;34.70;63.30;;;;;;4933667;29;20464;-75
2021/09/05 09:36:56;;;;;;;18.53;17.57;;;34.90;61.50;;;;;;4933483;29;20820;-75
2021/09/05 09:39:24;;;;;;;19.17;18.03;;;35.30;60.00;;;;;;4931924;29;20453;-74
2021/09/05 09:41:51;;;;;;;19.53;18.57;;;35.40;59.90;;;;;;4931836;29;20456;-75
2021/09/05 09:44:18;;;;;;;19.30;18.40;;;35.90;58.50;;;;;;4933321;29;20457;-75
2021/09/05 09:46:45;;;;;;;19.57;18.57;;;36.00;58.20;;;;;;4933165;29;20464;-75
2021/09/05 09:49:13;;;;;;;19.20;18.30;;;35.60;58.20;;;;;;4933326;29;20508;-74
2021/09/05 09:51:41;;;;;;;19.13;18.03;;;34.40;60.30;;;;;;4933542;29;21067;-75
2021/09/05 09:54:08;;;;;;;21.40;20.23;;;34.90;60.00;;;;;;4933490;29;20453;-75
2021/09/05 09:56:37;;;;;;;19.60;18.60;;;35.70;59.00;;;;;;4933094;29;20458;-75
2021/09/05 09:59:06;;;;;;;19.20;18.30;;;36.30;57.60;;;;;;4933204;29;21011;-74
2021/09/05 10:01:34;;;;;;;20.33;19.20;;;36.40;57.10;;;;;;4933205;29;20517;-75
2021/09/05 10:04:03;;;;;;;19.40;18.40;;;36.60;56.40;;;;;;4933166;29;20458;-74
2021/09/05 10:06:32;;;;;;;20.20;19.20;;;35.10;58.60;;;;;;4933083;29;20457;-74
2021/09/05 10:09:02;;;;;;;20.47;19.50;;;34.50;59.90;;;;;;4931526;29;20904;-74
2021/09/05 10:11:29;;;;;;;18.70;17.80;;;34.00;60.40;;;;;;4933203;29;20493;-74
2021/09/05 10:13:59;;;;;;;18.43;17.53;;;34.20;59.00;;;;;;4933305;29;20867;-74
2021/09/05 10:16:26;;;;;;;18.57;17.60;;;33.70;60.80;;;;;;4933250;29;20889;-74
2021/09/05 10:18:54;;;;;;;17.93;17.03;;;33.30;60.30;;;;;;4933145;29;20453;-74
2021/09/05 10:21:23;;;;;;;17.30;16.50;;;33.70;60.40;;;;;;4933404;29;20449;-75
2021/09/05 10:23:53;;;;;;;18.70;17.70;;;34.50;58.90;;;;;;4933154;29;20465;-75
2021/09/05 10:26:20;;;;;;;19.20;18.30;;;34.60;57.30;;;;;;4933004;29;20800;-75
2021/09/05 10:28:48;;;;;;;19.00;18.10;;;35.20;54.60;;;;;;4933090;29;20453;-75
2021/09/05 10:31:25;;;;;;;18.83;18.03;;;35.80;52.30;;;;;;4933541;29;20493;-75
2021/09/05 10:33:52;;;;;;;17.97;17.17;;;35.80;52.00;;;;;;4936553;29;20449;-74
2021/09/05 10:36:19;;;;;;;17.87;17.00;;;36.50;51.50;;;;;;4936366;29;20509;-75
2021/09/05 10:38:48;;;;;;;18.17;17.33;;;36.90;50.20;;;;;;4936201;29;20456;-75
2021/09/05 10:41:16;;;;;;;18.70;17.60;;;35.80;50.20;;;;;;4936172;29;20966;-75
2021/09/05 10:44:04;;;;;;;18.23;17.33;;;36.40;49.20;;;;;;4936245;29;20797;-75
2021/09/05 10:46:35;;;;;;;18.80;18.00;;;37.10;48.20;;;;;;4936227;29;20844;-74
2021/09/05 10:49:04;;;;;;;17.57;16.77;;;37.70;46.60;;;;;;4936140;29;20461;-74
2021/09/05 10:51:33;;;;;;;17.37;16.60;;;38.00;46.30;;;;;;4936011;29;20485;-75
2021/09/05 10:54:02;;;;;;;19.23;18.43;;;38.80;44.40;;;;;;4936290;29;20480;-75
2021/09/05 10:56:29;;;;;;;18.30;17.57;;;38.80;42.60;;;;;;4936045;29;20449;-74
2021/09/05 10:58:57;;;;;;;17.20;16.17;;;38.60;41.90;;;;;;4936268;29;20464;-74
2021/09/05 11:01:33;;;;;;;16.40;15.70;;;38.80;40.60;;;;;;4936155;29;20449;-75
2021/09/05 11:04:24;;;;;;;15.63;14.93;;;36.70;43.30;;;;;;4936012;29;20456;-74
2021/09/05 11:06:52;;;;;;;16.10;15.20;;;34.80;45.50;;;;;;4921599;29;20871;-74
2021/09/05 11:09:48;;;;;;;16.20;15.43;;;33.60;48.20;;;;;;4935932;29;20453;-74
2021/09/05 11:12:38;;;;;;;15.77;15.07;;;32.60;48.50;;;;;;4935779;29;20457;-75
2021/09/05 11:15:11;;;;;;;16.50;15.70;;;33.30;48.40;;;;;;4935675;29;20902;-75
2021/09/05 11:17:39;;;;;;;17.20;16.20;;;33.80;47.10;;;;;;4935723;29;20990;-75
2021/09/05 11:20:08;;;;;;;16.00;15.20;;;34.40;46.00;;;;;;4935637;29;20446;-75
2021/09/05 11:22:37;;;;;;;15.03;14.33;;;34.60;45.30;;;;;;4935733;29;20476;-76
2021/09/05 11:25:15;;;;;;;16.57;15.57;;;33.70;46.60;;;;;;4933964;29;20457;-75
2021/09/05 11:27:51;;;;;;;15.20;14.50;;;33.50;46.80;;;;;;4935515;29;20453;-74
2021/09/05 11:30:19;;;;;;;16.90;16.10;;;32.20;48.40;;;;;;4935284;29;20492;-75
2021/09/05 11:32:47;;;;;;;15.70;15.00;;;32.30;48.60;;;;;;4935455;29;21155;-74
2021/09/05 11:35:15;;;;;;;16.00;15.17;;;32.70;48.90;;;;;;4935340;29;20453;-74
2021/09/05 11:37:43;;;;;;;15.73;15.13;;;32.50;48.80;;;;;;4935690;29;20504;-74
2021/09/05 11:40:13;;;;;;;15.90;15.10;;;32.90;47.70;;;;;;4935597;29;20457;-74
2021/09/05 11:42:45;;;;;;;16.63;15.83;;;34.10;46.50;;;;;;4934804;29;20461;-74
2021/09/05 11:45:14;;;;;;;16.40;15.70;;;34.70;45.90;;;;;;4935171;29;20948;-74
2021/09/05 11:47:41;;;;;;;17.40;16.63;;;34.70;46.70;;;;;;4935329;29;20540;-74
2021/09/05 11:50:12;;;;;;;15.97;15.27;;;35.30;45.20;;;;;;4935268;29;20533;-74
2021/09/05 11:52:41;;;;;;;17.00;16.20;;;35.20;44.80;;;;;;4935285;29;20461;-74
2021/09/05 11:55:10;;;;;;;16.07;15.37;;;35.40;45.10;;;;;;4936421;29;20520;-74
2021/09/05 11:57:38;;;;;;;17.43;16.63;;;35.80;43.30;;;;;;4936513;29;20464;-74
2021/09/05 12:00:07;;;;;;;16.07;15.23;;;36.20;41.60;;;;;;4936587;29;20457;-74
2021/09/05 12:02:35;;;;;;;16.90;16.17;;;36.20;42.00;;;;;;4934886;29;20457;-74
2021/09/05 12:05:03;;;;;;;16.63;15.90;;;35.20;42.20;;;;;;4934739;29;20449;-74
2021/09/05 12:07:36;;;;;;;16.37;15.67;;;35.00;42.30;;;;;;4934760;29;21007;-75
2021/09/05 12:10:08;;;;;;;16.60;15.90;;;35.40;41.20;;;;;;4934594;29;20457;-74
2021/09/05 12:12:35;;;;;;;16.33;15.57;;;35.20;40.40;;;;;;4934759;29;20457;-75
2021/09/05 12:15:16;;;;;;;16.37;15.30;;;35.20;40.40;;;;;;4934508;29;20525;-74
2021/09/05 12:17:45;;;;;;;16.03;15.33;;;35.70;40.30;;;;;;4932796;29;20489;-74
2021/09/05 12:20:13;;;;;;;16.77;16.00;;;35.20;41.60;;;;;;4934485;29;20446;-74
2021/09/05 12:22:47;;;;;;;15.83;15.13;;;34.70;43.20;;;;;;4934775;29;20456;-73
2021/09/05 12:25:17;;;;;;;16.00;15.30;;;34.00;43.70;;;;;;4934729;29;20505;-74
2021/09/05 12:27:54;;;;;;;17.00;16.30;;;34.20;44.10;;;;;;4934332;29;20511;-74
2021/09/05 12:30:23;;;;;;;15.70;15.00;;;33.80;44.20;;;;;;4934275;29;20800;-73
2021/09/05 12:33:10;;;;;;;17.27;16.47;;;34.30;44.00;;;;;;4934295;29;20465;-73
2021/09/05 12:35:37;;;;;;;17.33;16.27;;;33.50;43.80;;;;;;4934298;29;20552;-73
2021/09/05 12:38:07;;;;;;;15.60;15.00;;;32.80;44.90;;;;;;4934340;29;20529;-74